createdAt,value
2018-08-06T00:01:09.405Z,99553.09
2018-08-06T00:03:38.927Z,99535.16
2018-08-06T00:06:08.641Z,99513.11
2018-08-06T00:08:40.339Z,99543.72
2018-08-06T00:11:12.015Z,99528.55
2018-08-06T00:13:40.927Z,99545.71
2018-08-06T00:16:09.739Z,99540.05
2018-08-06T00:18:38.817Z,99544.14
2018-08-06T00:21:08.097Z,99548.31
2018-08-06T00:23:36.537Z,99527.50
2018-08-06T00:26:05.463Z,99534.38
2018-08-06T00:28:33.835Z,99530.10
2018-08-06T00:31:03.242Z,99529.96
2018-08-06T00:33:32.012Z,99530.63
2018-08-06T00:36:00.837Z,99526.67
2018-08-06T00:38:29.327Z,99527.72
2018-08-06T00:40:57.689Z,99422.73
2018-08-06T00:43:27.347Z,99507.93
2018-08-06T00:45:55.818Z,99517.28
2018-08-06T00:48:24.475Z,99489.69
2018-08-06T00:50:53.373Z,99391.12
2018-08-06T00:53:21.963Z,99494.33
2018-08-06T00:55:50.616Z,99528.34
2018-08-06T00:58:19.842Z,99485.30
2018-08-06T01:00:49.003Z,99502.98
2018-08-06T01:03:18.235Z,99477.86
2018-08-06T01:05:47.045Z,99507.86
2018-08-06T01:08:15.461Z,99507.27
2018-08-06T01:10:44.190Z,99488.55
2018-08-06T01:13:12.952Z,99534.45
2018-08-06T01:15:41.169Z,99508.14
2018-08-06T01:18:09.812Z,99487.06
2018-08-06T01:20:38.361Z,99497.94
2018-08-06T01:23:06.593Z,99485.31
2018-08-06T01:25:35.455Z,99514.19
2018-08-06T01:28:04.606Z,99510.22
2018-08-06T01:30:33.169Z,99506.02
2018-08-06T01:33:03.896Z,99506.66
2018-08-06T01:35:32.850Z,99513.95
2018-08-06T01:38:01.613Z,99485.20
2018-08-06T01:40:30.314Z,99519.20
2018-08-06T01:42:59.322Z,99490.31
2018-08-06T01:45:27.827Z,99500.92
2018-08-06T01:47:55.851Z,99502.22
2018-08-06T01:50:24.507Z,99498.61
2018-08-06T01:52:53.172Z,99518.17
2018-08-06T01:55:21.477Z,99484.95
2018-08-06T01:57:50.295Z,99511.41
2018-08-06T02:00:18.439Z,99519.57
2018-08-06T02:02:46.925Z,99507.44
2018-08-06T02:05:15.567Z,99509.61
2018-08-06T02:07:43.653Z,99506.67
2018-08-06T02:10:15.873Z,99509.23
2018-08-06T02:12:44.644Z,99518.17
2018-08-06T02:15:13.481Z,99513.19
2018-08-06T02:17:42.535Z,99514.34
2018-08-06T02:20:13.558Z,99501.19
2018-08-06T02:22:42.105Z,99503.36
2018-08-06T02:25:11.054Z,99502.59
2018-08-06T02:27:40.151Z,99494.28
2018-08-06T02:30:11.231Z,99496.31
2018-08-06T02:32:39.786Z,99487.14
2018-08-06T02:35:09.842Z,99486.61
2018-08-06T02:37:38.606Z,99488.52
2018-08-06T02:40:09.015Z,99468.34
2018-08-06T02:42:37.455Z,99475.00
2018-08-06T02:45:07.295Z,99442.03
2018-08-06T02:47:35.703Z,99470.02
2018-08-06T02:50:05.266Z,99476.66
2018-08-06T02:52:34.139Z,99478.45
2018-08-06T02:55:02.891Z,99476.66
2018-08-06T02:57:31.182Z,99476.64
2018-08-06T02:59:59.872Z,99461.05
2018-08-06T03:02:28.111Z,99474.23
2018-08-06T03:04:56.477Z,99449.20
2018-08-06T03:07:25.166Z,99464.39
2018-08-06T03:09:53.663Z,99463.36
2018-08-06T03:12:22.488Z,99470.00
2018-08-06T03:14:51.694Z,99467.95
2018-08-06T03:17:20.000Z,99459.53
2018-08-06T03:19:48.258Z,99466.44
2018-08-06T03:22:17.059Z,99466.44
2018-08-06T03:24:45.327Z,99422.83
2018-08-06T03:27:13.570Z,99458.38
2018-08-06T03:29:41.899Z,99451.73
2018-08-06T03:32:10.573Z,99436.13
2018-08-06T03:34:38.785Z,99419.52
2018-08-06T03:37:07.484Z,99461.79
2018-08-06T03:39:36.330Z,99456.69
2018-08-06T03:42:04.414Z,99463.17
2018-08-06T03:44:32.535Z,99464.73
2018-08-06T03:47:01.517Z,99462.82
2018-08-06T03:49:29.707Z,99429.58
2018-08-06T03:51:58.236Z,99464.84
2018-08-06T03:54:26.831Z,99451.38
2018-08-06T03:56:55.092Z,99465.08
2018-08-06T03:59:24.062Z,99469.02
2018-08-06T04:01:52.278Z,99468.75
2018-08-06T04:04:21.302Z,99469.77
2018-08-06T04:06:49.968Z,99424.66
2018-08-06T04:09:18.536Z,99427.84
2018-08-06T04:11:48.279Z,99457.72
2018-08-06T04:14:18.704Z,99479.06
2018-08-06T04:16:47.962Z,99476.50
2018-08-06T04:19:17.248Z,99472.41
2018-08-06T04:21:46.297Z,99477.16
2018-08-06T04:24:14.638Z,99470.52
2018-08-06T04:26:42.757Z,99478.70
2018-08-06T04:29:11.764Z,99475.75
2018-08-06T04:31:39.994Z,99373.60
2018-08-06T04:34:08.595Z,99497.19
2018-08-06T04:36:36.883Z,99490.17
2018-08-06T04:39:06.958Z,99491.45
2018-08-06T04:41:35.243Z,99492.34
2018-08-06T04:44:03.482Z,99467.03
2018-08-06T04:46:31.789Z,99447.61
2018-08-06T04:48:59.993Z,99491.35
2018-08-06T04:51:28.323Z,99487.02
2018-08-06T04:53:56.963Z,99479.01
2018-08-06T04:56:25.198Z,99427.89
2018-08-06T04:58:54.014Z,99483.86
2018-08-06T05:01:22.592Z,99456.41
2018-08-06T05:03:50.639Z,99484.89
2018-08-06T05:06:19.574Z,99470.09
2018-08-06T05:08:48.510Z,99467.37
2018-08-06T05:11:16.773Z,99486.08
2018-08-06T05:13:45.175Z,99481.35
2018-08-06T05:16:13.198Z,99478.81
2018-08-06T05:18:41.334Z,99478.02
2018-08-06T05:21:10.330Z,99452.60
2018-08-06T05:23:57.503Z,99507.81
2018-08-06T05:26:27.394Z,99482.92
2018-08-06T05:28:56.619Z,99444.53
2018-08-06T05:31:25.764Z,99433.33
2018-08-06T05:33:55.564Z,99497.23
2018-08-06T05:36:23.885Z,99493.26
2018-08-06T05:38:53.274Z,99488.66
2018-08-06T05:41:23.353Z,99498.11
2018-08-06T05:43:52.399Z,99444.09
2018-08-06T05:46:21.050Z,99467.19
2018-08-06T05:48:50.148Z,99503.08
2018-08-06T05:51:18.477Z,99512.13
2018-08-06T05:53:46.641Z,99463.85
2018-08-06T05:56:15.660Z,99532.98
2018-08-06T05:58:43.903Z,99500.98
2018-08-06T06:01:12.187Z,99469.05
2018-08-06T06:03:40.858Z,99501.98
2018-08-06T06:06:10.999Z,99486.00
2018-08-06T06:08:42.351Z,99512.27
2018-08-06T06:11:11.420Z,99505.06
2018-08-06T06:13:40.332Z,99460.09
2018-08-06T06:16:09.670Z,99506.20
2018-08-06T06:18:39.442Z,99489.70
2018-08-06T06:21:08.145Z,99492.05
2018-08-06T06:23:38.750Z,99510.42
2018-08-06T06:26:07.266Z,99504.73
2018-08-06T06:28:35.650Z,99499.59
2018-08-06T06:31:05.243Z,99494.73
2018-08-06T06:33:36.961Z,99518.64
2018-08-06T06:36:06.302Z,99511.59
2018-08-06T06:38:34.552Z,99492.49
2018-08-06T06:41:03.053Z,99504.72
2018-08-06T06:43:31.364Z,99486.34
2018-08-06T06:46:00.033Z,99439.52
2018-08-06T06:48:30.005Z,99370.55
2018-08-06T06:50:58.360Z,99475.84
2018-08-06T06:53:26.465Z,99505.01
2018-08-06T06:55:56.031Z,99497.14
2018-08-06T06:58:24.347Z,99509.02
2018-08-06T07:00:52.484Z,99506.09
2018-08-06T07:03:20.792Z,99502.42
2018-08-06T07:05:49.381Z,99505.95
2018-08-06T07:08:18.068Z,99503.05
2018-08-06T07:10:46.768Z,99502.03
2018-08-06T07:13:14.871Z,99491.48
2018-08-06T07:15:43.173Z,99489.69
2018-08-06T07:18:11.832Z,99365.57
2018-08-06T07:20:40.734Z,99491.88
2018-08-06T07:23:09.220Z,99491.00
2018-08-06T07:25:38.858Z,99394.21
2018-08-06T07:28:07.447Z,99494.14
2018-08-06T07:30:37.550Z,99482.35
2018-08-06T07:33:05.691Z,99486.92
2018-08-06T07:35:34.824Z,99480.69
2018-08-06T07:38:03.083Z,99479.03
2018-08-06T07:40:32.699Z,99478.71
2018-08-06T07:43:01.065Z,99471.19
2018-08-06T07:45:29.354Z,99432.50
2018-08-06T07:47:57.504Z,99460.28
2018-08-06T07:50:33.392Z,99440.88
2018-08-06T07:53:01.446Z,99460.98
2018-08-06T07:55:29.593Z,99440.32
2018-08-06T07:57:57.793Z,99461.48
2018-08-06T08:00:26.430Z,99457.88
2018-08-06T08:02:54.569Z,99457.77
2018-08-06T08:05:23.339Z,99454.91
2018-08-06T08:07:52.399Z,99450.78
2018-08-06T08:10:22.722Z,99453.44
2018-08-06T08:12:51.166Z,99446.83
2018-08-06T08:15:23.583Z,99433.91
2018-08-06T08:17:52.095Z,99453.48
2018-08-06T08:20:21.178Z,99450.14
2018-08-06T08:22:49.485Z,99423.91
2018-08-06T08:25:19.839Z,99428.08
2018-08-06T08:27:48.083Z,99431.80
2018-08-06T08:30:17.168Z,99430.34
2018-08-06T08:32:45.601Z,99427.24
2018-08-06T08:35:15.624Z,99430.80
2018-08-06T08:37:44.356Z,99419.39
2018-08-06T08:40:15.520Z,99425.91
2018-08-06T08:42:44.535Z,99421.08
2018-08-06T08:45:15.130Z,99398.74
2018-08-06T08:47:44.683Z,99415.66
2018-08-06T08:50:15.887Z,99411.52
2018-08-06T08:52:44.290Z,99425.08
2018-08-06T08:55:14.351Z,99418.42
2018-08-06T08:57:42.708Z,99415.53
2018-08-06T09:00:21.119Z,99414.89
2018-08-06T09:02:50.281Z,99412.09
2018-08-06T09:05:20.541Z,99401.92
2018-08-06T09:07:49.857Z,99400.94
2018-08-06T09:10:18.879Z,99403.48
2018-08-06T09:12:48.356Z,99406.03
2018-08-06T09:15:26.616Z,99403.88
2018-08-06T09:17:54.835Z,99392.20
2018-08-06T09:20:27.026Z,99379.69
2018-08-06T09:22:55.188Z,99391.41
2018-08-06T09:25:23.296Z,99395.91
2018-08-06T09:27:51.871Z,99387.25
2018-08-06T09:30:21.742Z,99377.19
2018-08-06T09:32:52.486Z,99372.44
2018-08-06T09:35:21.570Z,99369.15
2018-08-06T09:37:50.570Z,99368.83
2018-08-06T09:40:20.764Z,99366.82
2018-08-06T09:42:50.007Z,99369.19
2018-08-06T09:45:19.383Z,99368.86
2018-08-06T09:47:52.870Z,99369.63
2018-08-06T09:50:21.895Z,99357.06
2018-08-06T09:52:51.194Z,99355.74
2018-08-06T09:55:21.816Z,99356.75
2018-08-06T09:57:50.506Z,99346.26
2018-08-06T10:00:26.248Z,99349.78
2018-08-06T10:02:57.589Z,99329.71
2018-08-06T10:05:27.521Z,99339.93
2018-08-06T10:07:56.777Z,99332.55
2018-08-06T10:10:25.486Z,99329.13
2018-08-06T10:12:54.536Z,99335.05
2018-08-06T10:15:22.888Z,99326.34
2018-08-06T10:17:52.889Z,99330.28
2018-08-06T10:20:22.763Z,99328.78
2018-08-06T10:22:50.858Z,99313.51
2018-08-06T10:25:19.906Z,99311.21
2018-08-06T10:27:48.629Z,99305.20
2018-08-06T10:30:18.904Z,99311.27
2018-08-06T10:32:47.360Z,99309.91
2018-08-06T10:35:16.971Z,99297.44
2018-08-06T10:37:45.191Z,99311.30
2018-08-06T10:40:16.542Z,99299.77
2018-08-06T10:42:46.041Z,99303.02
2018-08-06T10:45:15.789Z,99299.80
2018-08-06T10:47:43.927Z,99296.16
2018-08-06T10:52:45.264Z,99293.05
2018-08-06T10:55:13.708Z,99280.42
2018-08-06T10:57:43.428Z,99294.92
2018-08-06T11:00:14.700Z,99281.72
2018-08-06T11:02:44.172Z,99280.02
2018-08-06T11:05:13.728Z,99279.45
2018-08-06T11:07:41.941Z,99275.42
2018-08-06T11:10:13.433Z,99279.16
2018-08-06T11:12:42.499Z,99270.65
2018-08-06T11:15:13.309Z,99267.34
2018-08-06T11:17:41.610Z,99283.47
2018-08-06T11:20:11.528Z,99270.34
2018-08-06T11:22:40.085Z,99259.23
2018-08-06T11:25:09.675Z,99253.19
2018-08-06T11:27:38.238Z,99245.05
2018-08-06T11:30:08.772Z,99256.78
2018-08-06T11:32:37.256Z,99229.56
2018-08-06T11:35:06.405Z,99245.02
2018-08-06T11:37:34.628Z,99242.84
2018-08-06T11:40:02.972Z,99230.70
2018-08-06T11:42:31.470Z,99228.58
2018-08-06T11:44:59.965Z,99205.47
2018-08-06T11:47:28.472Z,99219.86
2018-08-06T11:49:56.869Z,99212.00
2018-08-06T11:52:24.942Z,99217.04
2018-08-06T11:54:53.043Z,99216.69
2018-08-06T11:57:22.023Z,99216.09
2018-08-06T11:59:50.092Z,99216.34
2018-08-06T12:02:18.739Z,99203.83
2018-08-06T12:04:47.384Z,99205.14
2018-08-06T12:07:15.597Z,99201.52
2018-08-06T12:09:43.719Z,99184.94
2018-08-06T12:12:12.591Z,99202.28
2018-08-06T12:14:41.886Z,99195.95
2018-08-06T12:17:10.284Z,99195.92
2018-08-06T12:19:38.557Z,99190.23
2018-08-06T12:22:06.782Z,99190.42
2018-08-06T12:24:35.336Z,99184.20
2018-08-06T12:27:03.531Z,99176.41
2018-08-06T12:29:32.181Z,99180.59
2018-08-06T12:32:01.111Z,99178.87
2018-08-06T12:34:29.463Z,99170.69
2018-08-06T12:36:57.635Z,99156.94
2018-08-06T12:39:26.409Z,99166.61
2018-08-06T12:41:54.603Z,99167.69
2018-08-06T12:44:22.701Z,99162.74
2018-08-06T12:46:51.084Z,99164.38
2018-08-06T12:49:19.199Z,99160.94
2018-08-06T12:51:47.533Z,99153.04
2018-08-06T12:54:15.606Z,99128.50
2018-08-06T12:56:44.034Z,99151.84
2018-08-06T12:59:12.303Z,99133.89
2018-08-06T13:01:43.741Z,99137.92
2018-08-06T13:04:12.236Z,99128.88
2018-08-06T13:06:40.483Z,99130.05
2018-08-06T13:09:09.257Z,99114.50
2018-08-06T13:11:37.596Z,99111.27
2018-08-06T13:14:06.300Z,99113.49
2018-08-06T13:16:34.948Z,99103.29
2018-08-06T13:19:03.339Z,99106.52
2018-08-06T13:21:31.622Z,99104.94
2018-08-06T13:23:59.755Z,99090.62
2018-08-06T13:26:28.051Z,99103.04
2018-08-06T13:28:56.455Z,99070.33
2018-08-06T13:31:24.657Z,99090.95
2018-08-06T13:33:52.916Z,99090.69
2018-08-06T13:36:21.352Z,99081.94
2018-08-06T13:38:49.631Z,99063.55
2018-08-06T13:41:18.149Z,99071.36
2018-08-06T13:43:46.234Z,99073.33
2018-08-06T13:46:15.011Z,99065.30
2018-08-06T13:48:43.441Z,99065.07
2018-08-06T13:51:14.315Z,99068.81
2018-08-06T13:53:43.024Z,99061.15
2018-08-06T13:56:11.350Z,99056.50
2018-08-06T13:58:40.378Z,99051.36
2018-08-06T14:01:08.863Z,99042.58
2018-08-06T14:03:37.049Z,99054.95
2018-08-06T14:06:06.185Z,99045.28
2018-08-06T14:08:35.287Z,99044.12
2018-08-06T14:11:04.044Z,99038.69
2018-08-06T14:13:34.357Z,99026.67
2018-08-06T14:16:02.508Z,99034.66
2018-08-06T14:18:30.773Z,99033.98
2018-08-06T14:20:59.832Z,99026.16
2018-08-06T14:23:33.311Z,99035.02
2018-08-06T14:26:01.514Z,99023.81
2018-08-06T14:28:30.010Z,99019.46
2018-08-06T14:30:58.105Z,99017.08
2018-08-06T14:33:26.296Z,99013.19
2018-08-06T14:35:56.082Z,99004.86
2018-08-06T14:38:28.083Z,98936.18
2018-08-06T14:40:56.446Z,99005.91
2018-08-06T14:43:27.178Z,98996.13
2018-08-06T14:45:55.558Z,99007.52
2018-08-06T14:48:24.375Z,98990.04
2018-08-06T14:50:53.924Z,98994.84
2018-08-06T14:53:22.797Z,98940.02
2018-08-06T14:55:51.671Z,98978.83
2018-08-06T14:58:20.737Z,99004.30
2018-08-06T15:00:53.717Z,98964.09
2018-08-06T15:03:22.039Z,98986.94
2018-08-06T15:05:51.818Z,98964.04
2018-08-06T15:08:23.968Z,98961.97
2018-08-06T15:10:56.311Z,98951.45
2018-08-06T15:17:06.521Z,98972.58
2018-08-06T15:19:35.811Z,98957.05
2018-08-06T15:22:08.118Z,98955.09
2018-08-06T15:24:41.675Z,98954.16
2018-08-06T15:27:10.713Z,98960.60
2018-08-06T15:29:39.592Z,98950.38
2018-08-06T15:32:11.714Z,98923.88
2018-08-06T15:34:42.755Z,98912.11
2018-08-06T15:37:11.408Z,98947.15
2018-08-06T15:39:42.190Z,98925.59
2018-08-06T15:42:16.628Z,98897.72
2018-08-06T15:44:45.557Z,98929.02
2018-08-06T15:47:14.200Z,98925.83
2018-08-06T15:49:42.597Z,98927.09
2018-08-06T15:52:19.211Z,98861.33
2018-08-06T15:54:50.153Z,98922.14
2018-08-06T15:57:21.508Z,98817.98
2018-08-06T15:59:54.647Z,98924.72
2018-08-06T16:02:26.267Z,98920.48
2018-08-06T16:04:56.927Z,98923.45
2018-08-06T16:07:27.039Z,98886.41
2018-08-06T16:09:57.949Z,98914.71
2018-08-06T16:12:29.286Z,98906.34
2018-08-06T16:14:59.536Z,98880.16
2018-08-06T16:17:28.861Z,98895.44
2018-08-06T16:19:57.259Z,98889.56
2018-08-06T16:22:28.111Z,98885.67
2018-08-06T16:25:01.838Z,98886.33
2018-08-06T16:27:40.383Z,98862.49
2018-08-06T16:30:43.859Z,98877.03
2018-08-06T16:33:16.734Z,98882.58
2018-08-06T16:38:36.042Z,98888.08
2018-08-06T16:41:07.799Z,98802.09
2018-08-06T16:43:37.656Z,98877.04
2018-08-06T16:46:06.163Z,98879.14
2018-08-06T16:48:35.281Z,98875.67
2018-08-06T16:51:04.074Z,98842.05
2018-08-06T16:53:32.383Z,98857.66
2018-08-06T16:56:03.839Z,98836.16
2018-08-06T16:58:32.410Z,98878.81
2018-08-06T17:01:01.857Z,98872.34
2018-08-06T17:03:32.081Z,98877.84
2018-08-06T17:06:00.402Z,98876.16
2018-08-06T17:08:29.698Z,98869.31
2018-08-06T17:10:58.623Z,98869.97
2018-08-06T17:13:31.792Z,98865.36
2018-08-06T17:16:00.994Z,98855.73
2018-08-06T17:18:31.232Z,98850.60
2018-08-06T17:21:01.269Z,98863.23
2018-08-06T17:23:39.172Z,98863.39
2018-08-06T17:26:13.473Z,98844.69
2018-08-06T17:28:46.143Z,98861.58
2018-08-06T17:31:16.267Z,98871.09
2018-08-06T17:33:45.473Z,98831.55
2018-08-06T17:36:13.737Z,98865.86
2018-08-06T17:38:45.063Z,98868.45
2018-08-06T17:41:13.729Z,98874.18
2018-08-06T17:43:41.978Z,98870.66
2018-08-06T17:46:12.150Z,98874.31
2018-08-06T17:48:42.355Z,98873.95
2018-08-06T17:51:12.192Z,98862.60
2018-08-06T17:53:41.495Z,98835.34
2018-08-06T17:56:12.689Z,98865.25
2018-08-06T17:58:46.002Z,98865.05
2018-08-06T18:01:14.820Z,98864.78
2018-08-06T18:03:43.712Z,98857.03
2018-08-06T18:06:15.780Z,98868.84
2018-08-06T18:08:45.396Z,98862.59
2018-08-06T18:11:14.391Z,98858.67
2018-08-06T18:13:42.775Z,98852.45
2018-08-06T18:16:11.567Z,98832.66
2018-08-06T18:18:39.925Z,98862.33
2018-08-06T18:21:08.804Z,98846.39
2018-08-06T18:23:37.482Z,98863.98
2018-08-06T18:26:06.624Z,98861.81
2018-08-06T18:28:35.227Z,98861.72
2018-08-06T18:31:03.403Z,98856.92
2018-08-06T18:33:31.613Z,98865.21
2018-08-06T18:35:59.805Z,98863.91
2018-08-06T18:38:27.867Z,98860.92
2018-08-06T18:40:56.226Z,98866.05
2018-08-06T18:43:25.532Z,98840.03
2018-08-06T18:45:53.956Z,98872.41
2018-08-06T18:48:22.662Z,98821.80
2018-08-06T18:50:51.934Z,98878.36
2018-08-06T18:53:21.891Z,98874.49
2018-08-06T18:55:54.942Z,98871.09
2018-08-06T18:58:26.402Z,98883.92
2018-08-06T19:00:59.461Z,98878.16
2018-08-06T19:03:29.151Z,98878.27
2018-08-06T19:05:58.680Z,98887.78
2018-08-06T19:08:36.968Z,98857.75
2018-08-06T19:11:05.345Z,98895.44
2018-08-06T19:13:50.191Z,98851.77
2018-08-06T19:16:20.828Z,98874.31
2018-08-06T19:19:00.089Z,98905.78
2018-08-06T19:21:28.923Z,98886.57
2018-08-06T19:24:06.604Z,98896.82
2018-08-06T19:26:35.067Z,98914.38
2018-08-06T19:29:08.086Z,98900.95
2018-08-06T19:31:37.194Z,98906.42
2018-08-06T19:34:06.025Z,98919.13
2018-08-06T19:38:46.179Z,98911.05
2018-08-06T19:41:14.735Z,98922.22
2018-08-06T19:43:43.188Z,98924.08
2018-08-06T19:48:48.555Z,98922.22
2018-08-06T19:51:17.683Z,98909.61
2018-08-06T19:53:46.017Z,98921.38
2018-08-06T19:56:15.974Z,98922.94
2018-08-06T19:58:44.344Z,98926.14
2018-08-06T20:01:12.640Z,98921.55
2018-08-06T20:03:41.702Z,98917.29
2018-08-06T20:06:10.391Z,98914.77
2018-08-06T20:08:38.714Z,98920.28
2018-08-06T20:11:07.401Z,98916.13
2018-08-06T20:13:35.564Z,98906.34
2018-08-06T20:16:04.009Z,98880.84
2018-08-06T20:18:32.657Z,98913.86
2018-08-06T20:21:01.036Z,98909.35
2018-08-06T20:23:29.227Z,98916.34
2018-08-06T20:25:57.440Z,98908.28
2018-08-06T20:28:25.710Z,98892.19
2018-08-06T20:30:54.012Z,98907.38
2018-08-06T20:33:22.393Z,98903.66
2018-08-06T20:35:51.028Z,98900.70
2018-08-06T20:38:19.720Z,98900.55
2018-08-06T20:40:48.434Z,98908.61
2018-08-06T20:43:18.176Z,98904.50
2018-08-06T20:45:46.426Z,98903.20
2018-08-06T20:48:15.807Z,98906.28
2018-08-06T20:50:45.617Z,98849.72
2018-08-06T20:53:16.969Z,98900.02
2018-08-06T20:55:45.071Z,98907.98
2018-08-06T20:58:13.388Z,98884.80
2018-08-06T21:00:42.234Z,98909.91
2018-08-06T21:03:10.418Z,98917.07
2018-08-06T21:05:39.120Z,98914.95
2018-08-06T21:08:07.511Z,98917.10
2018-08-06T21:10:35.967Z,98923.95
2018-08-06T21:13:07.464Z,98908.40
2018-08-06T21:15:36.784Z,98913.52
2018-08-06T21:18:05.319Z,98911.31
2018-08-06T21:20:33.657Z,98918.76
2018-08-06T21:23:01.905Z,98912.91
2018-08-06T21:25:30.675Z,98908.59
2018-08-06T21:27:59.892Z,98914.25
2018-08-06T21:30:28.470Z,98900.72
2018-08-06T21:32:57.372Z,98915.20
2018-08-06T21:35:27.301Z,98916.02
2018-08-06T21:37:56.915Z,98910.99
2018-08-06T21:40:26.080Z,98910.64
2018-08-06T21:42:55.360Z,98902.44
2018-08-06T21:45:24.937Z,98900.55
2018-08-06T21:47:53.983Z,98902.27
2018-08-06T21:50:22.714Z,98899.34
2018-08-06T21:52:56.526Z,98900.30
2018-08-06T21:55:25.546Z,98878.75
2018-08-06T21:57:54.724Z,98902.57
2018-08-06T22:00:38.664Z,98899.09
2018-08-06T22:03:11.829Z,98869.58
2018-08-06T22:05:40.403Z,98886.31
2018-08-06T22:08:11.158Z,98889.43
2018-08-06T22:10:39.939Z,98887.72
2018-08-06T22:13:09.039Z,98891.58
2018-08-06T22:15:38.709Z,98887.02
2018-08-06T22:18:08.503Z,98887.02
2018-08-06T22:20:36.687Z,98875.01
2018-08-06T22:23:05.434Z,98892.31
2018-08-06T22:25:33.719Z,98897.59
2018-08-06T22:28:01.940Z,98870.91
2018-08-06T22:30:30.201Z,98878.95
2018-08-06T22:32:58.631Z,98888.33
2018-08-06T22:35:26.786Z,98882.47
2018-08-06T22:37:54.999Z,98869.78
2018-08-06T22:40:23.590Z,98884.35
2018-08-06T22:42:51.676Z,98886.31
2018-08-06T22:45:20.538Z,98885.18
2018-08-06T22:47:49.708Z,98885.43
2018-08-06T22:50:17.877Z,98880.49
2018-08-06T22:52:46.293Z,98879.53
2018-08-06T22:55:14.770Z,98881.03
2018-08-06T22:57:43.525Z,98879.78
2018-08-06T23:00:15.800Z,98864.67
2018-08-06T23:02:44.766Z,98856.22
2018-08-06T23:05:15.066Z,98871.03
2018-08-06T23:07:45.404Z,98865.07
2018-08-06T23:10:15.458Z,98839.88
2018-08-06T23:12:43.984Z,98861.48
2018-08-06T23:15:15.416Z,98839.94
2018-08-06T23:17:44.808Z,98863.38
2018-08-06T23:20:14.268Z,98866.30
2018-08-06T23:22:43.787Z,98862.69
2018-08-06T23:25:12.575Z,98856.36
2018-08-06T23:27:41.202Z,98861.69
2018-08-06T23:30:12.259Z,98849.31
2018-08-06T23:32:41.312Z,98854.67
2018-08-06T23:35:11.065Z,98853.73
2018-08-06T23:37:41.824Z,98851.96
2018-08-06T23:40:11.789Z,98837.05
2018-08-06T23:42:40.660Z,98840.14
2018-08-06T23:45:10.285Z,98837.96
2018-08-06T23:47:40.103Z,98831.33
2018-08-06T23:50:10.451Z,98830.35
2018-08-06T23:52:39.513Z,98825.16
2018-08-06T23:55:09.885Z,98824.84
2018-08-06T23:57:37.995Z,98824.86
